^^
Datos históricos de la estación: Murcia-Puente Tocinos
Diario Informe para Enero 15, 2019 Unidades:  Métrico    Inglés   Ambas
Diario Semanal Mensual Anual Configurable
  Máximo: Mínimo: Media:
Temperatura: 16.6 °C 5.3 °C 10.5 °C
Punto de rocio: 9.2 °C 1.3 °C 5.3 °C
Humedad: 88% 48% 72%
Velocidad viento: 11.3km/h 0.0km/h 5.8km/h
Racha viento: 20.9km/h - -
Viento- - SE
Presión: 1021.7 hPa 1018.8 hPa -
Precipitación: 0.0 mm    
Historical Graphs
 
 
Tabla de datos para Enero 15, 2019
Hora Temperatura Punto de rocio Presión Viento Velocidad viento Racha viento Humedad Intensidad lluvia(por hora) Nubes
00:00 10.1 °C 6.6 °C 1019.1 hPa SSE 3.2 km/h 4.8 km/h 79% 0.0 mm CLR
00:05 10.0 °C 6.5 °C 1019.1 hPa SSE 3.9 km/h   79% 0.0 mm CLR
00:09 9.9 °C 6.4 °C 1019.1 hPa Calm     79% 0.0 mm CLR
00:15 9.8 °C 6.3 °C 1019.1 hPa Calm     79% 0.0 mm CLR
00:19 9.7 °C 6.2 °C 1019.0 hPa Calm     79% 0.0 mm CLR
00:25 9.6 °C 6.1 °C 1019.0 hPa Calm     79% 0.0 mm CLR
00:29 9.6 °C 6.3 °C 1019.0 hPa Calm     80% 0.0 mm CLR
00:35 9.4 °C 6.1 °C 1019.1 hPa Calm     80% 0.0 mm CLR
00:39 9.4 °C 6.3 °C 1019.1 hPa Calm     81% 0.0 mm CLR
00:45 9.3 °C 6.2 °C 1019.1 hPa Calm   3.7 km/h 81% 0.0 mm CLR
00:49 9.3 °C 6.0 °C 1019.0 hPa Calm     80% 0.0 mm CLR
00:55 9.2 °C 5.9 °C 1019.0 hPa Calm   3.2 km/h 80% 0.0 mm CLR
01:00 9.2 °C 5.7 °C 1019.0 hPa Calm   4.8 km/h 79% 0.0 mm CLR
01:05 9.1 °C 5.7 °C 1019.0 hPa Calm   4.7 km/h 79% 0.0 mm CLR
01:10 9.1 °C 5.7 °C 1019.0 hPa SSE 3.2 km/h 3.7 km/h 79% 0.0 mm CLR
01:15 9.0 °C 5.6 °C 1019.0 hPa SSE 3.2 km/h 3.2 km/h 79% 0.0 mm CLR
01:19 8.9 °C 5.4 °C 1018.9 hPa SSE 2.3 km/h   79% 0.0 mm CLR
01:25 8.9 °C 5.6 °C 1018.9 hPa SSE 2.3 km/h   80% 0.0 mm CLR
01:29 8.8 °C 5.6 °C 1018.9 hPa Calm     80% 0.0 mm CLR
01:34 8.7 °C 5.4 °C 1019.0 hPa Calm   3.7 km/h 80% 0.0 mm CLR
01:40 8.6 °C 5.3 °C 1019.0 hPa Calm   3.7 km/h 80% 0.0 mm CLR
01:45 8.6 °C 5.2 °C 1019.0 hPa Calm   7.4 km/h 79% 0.0 mm CLR
01:49 8.4 °C 4.9 °C 1019.2 hPa SSE 2.9 km/h 3.9 km/h 79% 0.0 mm CLR
01:55 8.3 °C 4.9 °C 1019.2 hPa SSE 2.9 km/h 6.4 km/h 79% 0.0 mm CLR
02:00 8.2 °C 4.6 °C 1019.2 hPa South 3.2 km/h 9.7 km/h 78% 0.0 mm CLR
02:05 8.1 °C 4.5 °C 1019.1 hPa South 3.9 km/h 7.4 km/h 78% 0.0 mm CLR
02:09 8.1 °C 4.5 °C 1019.1 hPa South 5.8 km/h 7.4 km/h 78% 0.0 mm CLR
02:14 8.1 °C 4.3 °C 1019.1 hPa South 5.8 km/h 5.6 km/h 77% 0.0 mm CLR
02:19 8.1 °C 4.3 °C 1019.2 hPa South 4.7 km/h 7.4 km/h 77% 0.0 mm CLR
02:25 8.1 °C 4.1 °C 1019.2 hPa South 3.2 km/h 8.0 km/h 76% 0.0 mm CLR
02:29 8.1 °C 4.1 °C 1019.2 hPa South 4.7 km/h 7.4 km/h 76% 0.0 mm CLR
02:35 8.1 °C 4.1 °C 1019.2 hPa South 4.7 km/h 5.6 km/h 76% 0.0 mm CLR
02:40 8.0 °C 4.0 °C 1019.2 hPa South 4.7 km/h 7.4 km/h 76% 0.0 mm CLR
02:45 7.9 °C 3.9 °C 1019.2 hPa South 3.2 km/h 8.0 km/h 76% 0.0 mm CLR
02:49 7.7 °C 3.9 °C 1019.3 hPa South 4.7 km/h 7.4 km/h 77% 0.0 mm CLR
02:55 7.6 °C 4.0 °C 1019.3 hPa South 3.2 km/h 8.0 km/h 78% 0.0 mm CLR
03:00 7.6 °C 3.9 °C 1019.3 hPa South 4.8 km/h 8.0 km/h 78% 0.0 mm CLR
03:05 7.5 °C 3.9 °C 1019.4 hPa South 5.0 km/h 7.4 km/h 78% 0.0 mm CLR
03:10 7.4 °C 3.8 °C 1019.4 hPa SSE 5.8 km/h 7.4 km/h 78% 0.0 mm CLR
03:15 7.3 °C 3.7 °C 1019.4 hPa South 4.8 km/h 11.3 km/h 78% 0.0 mm CLR
03:19 7.2 °C 3.6 °C 1019.4 hPa SSE 6.4 km/h 9.3 km/h 78% 0.0 mm CLR
03:25 7.2 °C 3.6 °C 1019.4 hPa SSE 8.0 km/h 9.7 km/h 78% 0.0 mm CLR
03:29 7.1 °C 3.5 °C 1019.4 hPa South 6.4 km/h 7.4 km/h 78% 0.0 mm CLR
03:35 7.1 °C 3.5 °C 1019.4 hPa South 8.0 km/h 8.0 km/h 78% 0.0 mm CLR
03:39 7.1 °C 3.5 °C 1019.4 hPa South 5.0 km/h 9.3 km/h 78% 0.0 mm CLR
03:45 7.0 °C 3.2 °C 1019.4 hPa South 4.8 km/h 11.3 km/h 77% 0.0 mm CLR
03:49 6.9 °C 3.2 °C 1019.5 hPa SSE 6.9 km/h 9.3 km/h 77% 0.0 mm CLR
04:05 6.9 °C 3.2 °C 1019.5 hPa SSE 6.9 km/h 11.1 km/h 77% 0.0 mm CLR
04:09 6.8 °C 3.2 °C 1019.5 hPa SSE 7.6 km/h 11.1 km/h 78% 0.0 mm CLR
04:15 6.7 °C 3.1 °C 1019.5 hPa South 7.6 km/h 7.4 km/h 78% 0.0 mm CLR
04:19 6.7 °C 3.1 °C 1019.5 hPa South 7.6 km/h 9.3 km/h 78% 0.0 mm CLR
04:25 6.7 °C 3.1 °C 1019.5 hPa South 8.0 km/h 12.9 km/h 78% 0.0 mm CLR
04:29 6.7 °C 3.1 °C 1019.5 hPa South 8.4 km/h 13.0 km/h 78% 0.0 mm CLR
04:35 6.7 °C 2.9 °C 1019.4 hPa SSE 8.4 km/h 9.3 km/h 77% 0.0 mm CLR
04:39 6.7 °C 2.9 °C 1019.4 hPa SSW 7.6 km/h 10.0 km/h 77% 0.0 mm CLR
04:45 6.7 °C 2.9 °C 1019.4 hPa South 8.0 km/h 9.7 km/h 77% 0.0 mm CLR
04:49 6.6 °C 2.8 °C 1019.2 hPa SSE 7.6 km/h 11.1 km/h 77% 0.0 mm CLR
04:55 6.4 °C 2.7 °C 1019.2 hPa SSE 8.0 km/h 12.9 km/h 77% 0.0 mm CLR
05:00 6.2 °C 2.7 °C 1019.2 hPa SSE 8.0 km/h 14.5 km/h 78% 0.0 mm CLR
05:05 5.9 °C 2.3 °C 1019.2 hPa South 8.0 km/h 14.5 km/h 78% 0.0 mm CLR
05:10 5.8 °C 2.5 °C 1019.2 hPa South 9.7 km/h 12.9 km/h 79% 0.0 mm CLR
05:15 5.8 °C 2.4 °C 1019.2 hPa SSE 9.5 km/h 11.1 km/h 79% 0.0 mm CLR
05:20 5.8 °C 2.4 °C 1019.1 hPa SSE 8.4 km/h 9.3 km/h 79% 0.0 mm CLR
05:25 5.8 °C 2.4 °C 1019.1 hPa South 8.0 km/h 12.9 km/h 79% 0.0 mm CLR
05:29 5.8 °C 2.4 °C 1019.1 hPa South 8.4 km/h 9.3 km/h 79% 0.0 mm CLR
05:35 5.8 °C 2.4 °C 1019.1 hPa South 8.4 km/h 7.4 km/h 79% 0.0 mm CLR
05:39 5.8 °C 2.4 °C 1019.1 hPa SSE 6.9 km/h 11.1 km/h 79% 0.0 mm CLR
05:45 5.7 °C 2.3 °C 1019.1 hPa South 6.9 km/h 11.1 km/h 79% 0.0 mm CLR
05:50 5.6 °C 2.2 °C 1019.3 hPa South 7.6 km/h 11.1 km/h 79% 0.0 mm CLR
05:55 5.6 °C 2.1 °C 1019.3 hPa South 8.0 km/h 11.3 km/h 78% 0.0 mm CLR
06:00 5.7 °C 2.2 °C 1019.3 hPa South 8.0 km/h 14.5 km/h 78% 0.0 mm CLR
06:05 5.7 °C 2.0 °C 1019.3 hPa South 7.6 km/h 9.3 km/h 77% 0.0 mm CLR
06:09 5.8 °C 1.9 °C 1019.3 hPa South 7.6 km/h 10.0 km/h 76% 0.0 mm CLR
06:15 5.8 °C 1.9 °C 1019.3 hPa SSW 7.6 km/h 9.5 km/h 76% 0.0 mm CLR
06:20 5.9 °C 1.8 °C 1019.4 hPa South 8.0 km/h 14.5 km/h 75% 0.0 mm CLR
06:25 5.9 °C 1.8 °C 1019.4 hPa South 7.6 km/h 11.1 km/h 75% 0.0 mm CLR
06:30 6.0 °C 1.7 °C 1019.4 hPa SSW 8.7 km/h 11.1 km/h 74% 0.0 mm CLR
06:35 6.1 °C 1.8 °C 1019.5 hPa SSW 8.7 km/h 11.1 km/h 74% 0.0 mm CLR
06:40 6.2 °C 1.9 °C 1019.5 hPa SSW 9.7 km/h 12.9 km/h 74% 0.0 mm CLR
06:45 6.2 °C 1.9 °C 1019.5 hPa SSW 9.7 km/h 11.3 km/h 74% 0.0 mm CLR
06:50 6.3 °C 2.0 °C 1019.7 hPa South 8.4 km/h 9.3 km/h 74% 0.0 mm CLR
06:55 6.2 °C 1.9 °C 1019.7 hPa South 8.4 km/h 11.1 km/h 74% 0.0 mm CLR
07:00 6.2 °C 2.1 °C 1019.7 hPa South 8.0 km/h 12.9 km/h 75% 0.0 mm CLR
07:05 6.1 °C 2.0 °C 1019.9 hPa South 8.0 km/h 12.9 km/h 75% 0.0 mm CLR
07:09 6.0 °C 1.9 °C 1019.9 hPa South 8.4 km/h 11.1 km/h 75% 0.0 mm CLR
07:15 5.9 °C 2.0 °C 1019.9 hPa South 8.0 km/h 11.3 km/h 76% 0.0 mm CLR
07:19 5.9 °C 2.0 °C 1020.0 hPa South 6.9 km/h 9.3 km/h 76% 0.0 mm CLR
07:25 5.9 °C 2.0 °C 1020.0 hPa South 6.9 km/h 9.3 km/h 76% 0.0 mm CLR
07:29 5.9 °C 2.0 °C 1020.0 hPa SSW 6.4 km/h 9.3 km/h 76% 0.0 mm CLR
07:35 5.9 °C 2.0 °C 1020.1 hPa South 8.0 km/h 11.3 km/h 76% 0.0 mm CLR
07:39 5.8 °C 1.9 °C 1020.1 hPa SSE 7.6 km/h 13.0 km/h 76% 0.0 mm CLR
07:45 5.8 °C 2.1 °C 1020.1 hPa South 7.6 km/h 14.8 km/h 77% 0.0 mm CLR
07:49 5.7 °C 2.0 °C 1020.2 hPa South 9.5 km/h 13.0 km/h 77% 0.0 mm CLR
07:55 5.7 °C 2.0 °C 1020.2 hPa South 9.7 km/h 12.9 km/h 77% 0.0 mm CLR
08:00 5.6 °C 1.9 °C 1020.2 hPa South 8.0 km/h 12.9 km/h 77% 0.0 mm CLR
08:05 5.5 °C 1.8 °C 1020.2 hPa South 8.4 km/h 13.0 km/h 77% 0.0 mm CLR
08:09 5.5 °C 1.8 °C 1020.2 hPa South 8.7 km/h 11.1 km/h 77% 0.0 mm CLR
08:15 5.4 °C 1.7 °C 1020.2 hPa South 8.7 km/h 11.1 km/h 77% 0.0 mm CLR
08:19 5.4 °C 1.7 °C 1020.3 hPa South 8.7 km/h 11.1 km/h 77% 0.0 mm CLR
08:25 5.3 °C 1.6 °C 1020.3 hPa South 8.7 km/h 13.0 km/h 77% 0.0 mm CLR
08:30 5.3 °C 1.6 °C 1020.3 hPa South 9.7 km/h 12.9 km/h 77% 0.0 mm CLR
08:35 5.3 °C 1.6 °C 1020.4 hPa South 9.5 km/h 11.1 km/h 77% 0.0 mm CLR
08:40 5.3 °C 1.4 °C 1020.4 hPa South 9.7 km/h 12.9 km/h 76% 0.0 mm CLR
08:45 5.3 °C 1.4 °C 1020.4 hPa South 9.7 km/h 12.9 km/h 76% 0.0 mm CLR
08:50 5.3 °C 1.4 °C 1020.6 hPa South 8.0 km/h 12.9 km/h 76% 0.0 mm CLR
08:55 5.4 °C 1.3 °C 1020.6 hPa South 8.0 km/h 14.5 km/h 75% 0.0 mm CLR
09:00 5.6 °C 1.5 °C 1020.6 hPa South 9.7 km/h 12.9 km/h 75% 0.0 mm CLR
09:05 5.7 °C 1.6 °C 1020.6 hPa South 9.7 km/h 14.5 km/h 75% 0.0 mm CLR
09:09 5.9 °C 1.8 °C 1020.6 hPa South 9.5 km/h 13.0 km/h 75% 0.0 mm CLR
09:15 6.0 °C 1.9 °C 1020.6 hPa South 9.7 km/h 12.9 km/h 75% 0.0 mm CLR
09:20 6.1 °C 1.8 °C 1020.7 hPa South 8.0 km/h 14.5 km/h 74% 0.0 mm FEW
09:25 6.2 °C 1.7 °C 1020.7 hPa South 8.4 km/h 14.8 km/h 73% 0.0 mm FEW
09:30 6.4 °C 1.7 °C 1020.7 hPa SSW 10.0 km/h 13.0 km/h 72% 0.0 mm FEW
09:35 6.4 °C 1.7 °C 1020.9 hPa South 9.7 km/h 12.9 km/h 72% 0.0 mm FEW
09:40 6.6 °C 1.7 °C 1020.9 hPa SSW 9.5 km/h 14.8 km/h 71% 0.0 mm FEW
09:45 6.8 °C 1.7 °C 1020.9 hPa South 9.7 km/h 14.5 km/h 70% 0.0 mm FEW
09:50 6.9 °C 1.8 °C 1021.1 hPa South 9.7 km/h 14.5 km/h 70% 0.0 mm FEW
09:55 7.1 °C 1.8 °C 1021.1 hPa South 8.7 km/h 13.0 km/h 69% 0.0 mm FEW
10:00 7.3 °C 1.8 °C 1021.1 hPa SSW 8.0 km/h 12.9 km/h 68% 0.0 mm FEW
10:05 7.5 °C 1.8 °C 1021.2 hPa South 8.0 km/h 12.9 km/h 67% 0.0 mm FEW
10:10 7.8 °C 1.8 °C 1021.2 hPa WSW 7.6 km/h 9.3 km/h 66% 0.0 mm FEW
10:15 8.1 °C 1.6 °C 1021.2 hPa SSW 8.0 km/h 11.3 km/h 64% 0.0 mm FEW
10:19 8.3 °C 1.7 °C 1021.5 hPa South 6.4 km/h 11.1 km/h 63% 0.0 mm FEW
10:25 8.6 °C 1.9 °C 1021.5 hPa SSW 6.4 km/h 9.5 km/h 63% 0.0 mm FEW
10:30 8.7 °C 1.8 °C 1021.5 hPa SSW 8.0 km/h 11.3 km/h 62% 0.0 mm FEW
10:35 8.8 °C 1.7 °C 1021.6 hPa South 7.6 km/h 13.0 km/h 61% 0.0 mm FEW
10:40 8.8 °C 1.7 °C 1021.6 hPa SSW 8.4 km/h 9.3 km/h 61% 0.0 mm FEW
10:44 9.1 °C 1.7 °C 1021.6 hPa SSW 8.4 km/h 9.3 km/h 60% 0.0 mm FEW
10:50 9.3 °C 1.7 °C 1021.7 hPa SSW 7.6 km/h 9.3 km/h 59% 0.0 mm FEW
10:55 9.6 °C 1.7 °C 1021.7 hPa SSE 7.6 km/h 11.1 km/h 58% 0.0 mm FEW
11:00 9.8 °C 1.7 °C 1021.7 hPa South 8.0 km/h 11.3 km/h 57% 0.0 mm FEW
11:05 9.9 °C 1.8 °C 1021.7 hPa SSW 8.0 km/h 9.7 km/h 57% 0.0 mm FEW
11:10 10.2 °C 1.8 °C 1021.7 hPa SSW 6.4 km/h 9.3 km/h 56% 0.0 mm FEW
11:15 10.3 °C 1.9 °C 1021.7 hPa South 8.0 km/h 9.7 km/h 56% 0.0 mm FEW
11:19 10.6 °C 2.2 °C 1021.7 hPa SSE 6.4 km/h 6.4 km/h 56% 0.0 mm FEW
11:25 10.9 °C 2.2 °C 1021.7 hPa SE 6.4 km/h 9.3 km/h 55% 0.0 mm FEW
11:30 11.2 °C 2.5 °C 1021.7 hPa South 5.8 km/h 7.4 km/h 55% 0.0 mm FEW
11:35 11.3 °C 2.3 °C 1021.6 hPa SW 5.8 km/h 9.3 km/h 54% 0.0 mm FEW
11:40 11.4 °C 2.4 °C 1021.6 hPa South 4.8 km/h 9.7 km/h 54% 0.0 mm FEW
11:45 11.7 °C 2.4 °C 1021.6 hPa South 4.8 km/h 9.7 km/h 53% 0.0 mm FEW
11:50 11.8 °C 2.5 °C 1021.5 hPa SSW 5.8 km/h 7.4 km/h 53% 0.0 mm FEW
11:55 12.0 °C 2.4 °C 1021.5 hPa SSE 5.8 km/h 9.3 km/h 52% 0.0 mm FEW
12:00 12.1 °C 2.6 °C 1021.5 hPa South 4.8 km/h 9.7 km/h 52% 0.0 mm FEW
12:05 12.3 °C 2.4 °C 1021.4 hPa SSW 4.8 km/h 9.7 km/h 51% 0.0 mm FEW
12:10 12.3 °C 2.4 °C 1021.4 hPa South 5.8 km/h 9.3 km/h 51% 0.0 mm FEW
12:15 12.6 °C 2.7 °C 1021.4 hPa South 5.8 km/h 10.0 km/h 51% 0.0 mm FEW
12:20 12.8 °C 2.3 °C 1021.2 hPa SW 5.0 km/h 9.3 km/h 49% 0.0 mm FEW
12:25 12.8 °C 2.3 °C 1021.2 hPa SW 5.0 km/h 5.8 km/h 49% 0.0 mm FEW
12:30 13.0 °C 2.5 °C 1021.2 hPa SSW 4.7 km/h 5.6 km/h 49% 0.0 mm FEW
12:35 13.2 °C 2.7 °C 1020.9 hPa ENE 4.7 km/h 3.9 km/h 49% 0.0 mm FEW
12:39 13.5 °C 2.7 °C 1020.9 hPa SSW 3.9 km/h 9.3 km/h 48% 0.0 mm FEW
12:45 13.6 °C 2.8 °C 1020.9 hPa SE 3.2 km/h 8.0 km/h 48% 0.0 mm FEW
12:49 13.9 °C 3.3 °C 1020.7 hPa SSW 2.9 km/h 7.4 km/h 49% 0.0 mm SCT
12:55 14.2 °C 3.6 °C 1020.7 hPa SSW 3.2 km/h 4.8 km/h 49% 0.0 mm SCT
13:00 14.6 °C 3.7 °C 1020.7 hPa SSW 1.6 km/h   48% 0.0 mm SCT
13:05 14.9 °C 4.3 °C 1020.4 hPa SSW 1.6 km/h 3.2 km/h 49% 0.0 mm SCT
13:09 15.2 °C 4.8 °C 1020.4 hPa Calm   7.4 km/h 50% 0.0 mm SCT
13:15 15.2 °C 5.4 °C 1020.4 hPa Calm   3.7 km/h 52% 0.0 mm SCT
13:19 15.4 °C 6.9 °C 1020.2 hPa NE 3.2 km/h 5.6 km/h 57% 0.0 mm SCT
13:25 15.4 °C 7.2 °C 1020.2 hPa NE 3.2 km/h 9.7 km/h 58% 0.0 mm SCT
13:30 15.3 °C 7.3 °C 1020.2 hPa NE 3.9 km/h 9.3 km/h 59% 0.0 mm SCT
13:35 15.4 °C 7.4 °C 1019.9 hPa NNE 3.2 km/h 12.9 km/h 59% 0.0 mm SCT
13:40 15.5 °C 8.0 °C 1019.9 hPa NE 5.0 km/h 9.5 km/h 61% 0.0 mm SCT
13:45 15.6 °C 8.3 °C 1019.9 hPa NE 4.8 km/h 12.9 km/h 62% 0.0 mm SCT
13:50 15.6 °C 8.1 °C 1019.7 hPa NE 6.4 km/h 13.0 km/h 61% 0.0 mm SCT
13:55 15.6 °C 7.8 °C 1019.7 hPa NE 8.0 km/h 12.9 km/h 60% 0.0 mm SCT
14:00 15.8 °C 8.0 °C 1019.7 hPa NE 8.0 km/h 16.1 km/h 60% 0.0 mm SCT
14:05 15.8 °C 8.1 °C 1019.5 hPa NE 8.0 km/h 14.5 km/h 60% 0.0 mm SCT
14:09 15.9 °C 8.2 °C 1019.5 hPa ENE 8.4 km/h 13.0 km/h 60% 0.0 mm SCT
14:15 16.0 °C 8.0 °C 1019.5 hPa NE 8.4 km/h 14.8 km/h 59% 0.0 mm SCT
14:20 15.9 °C 7.9 °C 1019.4 hPa NNE 8.7 km/h 14.8 km/h 59% 0.0 mm FEW
14:25 15.9 °C 7.9 °C 1019.4 hPa NNE 8.7 km/h 9.3 km/h 59% 0.0 mm FEW
14:30 16.1 °C 7.8 °C 1019.4 hPa NE 8.0 km/h 16.1 km/h 58% 0.0 mm FEW
14:35 16.1 °C 7.9 °C 1019.2 hPa NE 8.0 km/h 16.1 km/h 58% 0.0 mm FEW
14:40 16.2 °C 7.9 °C 1019.2 hPa ENE 9.7 km/h 14.5 km/h 58% 0.0 mm FEW
14:45 16.2 °C 7.7 °C 1019.2 hPa ENE 8.7 km/h 16.7 km/h 57% 0.0 mm FEW
14:50 16.2 °C 7.4 °C 1019.2 hPa ENE 9.7 km/h 14.5 km/h 56% 0.0 mm SCT
14:55 16.3 °C 7.8 °C 1019.2 hPa NE 9.7 km/h 17.7 km/h 57% 0.0 mm SCT
15:00 16.4 °C 7.8 °C 1019.2 hPa NE 8.0 km/h 14.5 km/h 57% 0.0 mm SCT
15:05 16.4 °C 7.6 °C 1019.1 hPa NE 8.0 km/h 16.1 km/h 56% 0.0 mm SCT
15:09 16.4 °C 8.1 °C 1019.1 hPa NE 8.4 km/h 14.8 km/h 58% 0.0 mm SCT
15:15 16.4 °C 8.1 °C 1019.1 hPa NE 8.4 km/h 13.0 km/h 58% 0.0 mm SCT
15:20 16.4 °C 8.1 °C 1019.0 hPa NE 9.7 km/h 20.9 km/h 58% 0.0 mm SCT
15:25 16.4 °C 8.1 °C 1019.0 hPa NE 10.0 km/h 15.6 km/h 58% 0.0 mm SCT
15:29 16.4 °C 8.1 °C 1019.0 hPa ESE 8.7 km/h 10.0 km/h 58% 0.0 mm SCT
15:35 16.4 °C 8.1 °C 1018.9 hPa ENE 8.7 km/h 11.9 km/h 58% 0.0 mm SCT
15:40 16.3 °C 8.0 °C 1018.9 hPa East 7.6 km/h 11.1 km/h 58% 0.0 mm SCT
15:45 16.4 °C 7.8 °C 1018.9 hPa ENE 7.6 km/h 9.3 km/h 57% 0.0 mm SCT
15:50 16.4 °C 8.1 °C 1018.8 hPa NE 8.0 km/h 9.7 km/h 58% 0.0 mm SCT
15:55 16.5 °C 7.9 °C 1018.8 hPa NE 8.0 km/h 16.1 km/h 57% 0.0 mm SCT
16:00 16.5 °C 7.9 °C 1018.8 hPa NE 8.0 km/h 16.1 km/h 57% 0.0 mm SCT
16:05 16.4 °C 7.8 °C 1018.8 hPa NNE 6.9 km/h 7.4 km/h 57% 0.0 mm SCT
16:10 16.5 °C 8.2 °C 1018.8 hPa NNE 6.9 km/h 7.4 km/h 58% 0.0 mm SCT
16:15 16.5 °C 8.2 °C 1018.8 hPa NE 6.9 km/h 14.8 km/h 58% 0.0 mm SCT
16:20 16.6 °C 8.3 °C 1018.8 hPa NE 6.9 km/h 7.4 km/h 58% 0.0 mm SCT
16:25 16.6 °C 8.3 °C 1018.8 hPa NE 8.0 km/h 16.1 km/h 58% 0.0 mm SCT
16:29 16.4 °C 8.4 °C 1018.8 hPa ENE 7.6 km/h 14.8 km/h 59% 0.0 mm SCT
16:35 16.4 °C 8.3 °C 1018.8 hPa NE 8.0 km/h 16.1 km/h 59% 0.0 mm SCT
16:40 16.3 °C 8.3 °C 1018.8 hPa NE 10.0 km/h 11.1 km/h 59% 0.0 mm SCT
16:45 16.4 °C 8.4 °C 1018.8 hPa NE 9.7 km/h 12.9 km/h 59% 0.0 mm SCT
16:50 16.4 °C 8.6 °C 1018.8 hPa NE 7.6 km/h 13.0 km/h 60% 0.0 mm SCT
16:55 16.3 °C 8.8 °C 1018.8 hPa ENE 8.0 km/h 16.1 km/h 61% 0.0 mm SCT
17:00 16.2 °C 8.7 °C 1018.8 hPa NE 9.7 km/h 14.5 km/h 61% 0.0 mm SCT
17:05 16.1 °C 8.6 °C 1018.8 hPa East 8.7 km/h 13.0 km/h 61% 0.0 mm SCT
17:10 16.0 °C 8.4 °C 1018.8 hPa NE 9.7 km/h 16.1 km/h 61% 0.0 mm SCT
17:15 15.9 °C 8.4 °C 1018.8 hPa NE 9.7 km/h 16.1 km/h 61% 0.0 mm SCT
17:20 15.8 °C 8.3 °C 1018.9 hPa NE 9.7 km/h 19.3 km/h 61% 0.0 mm FEW
17:25 15.7 °C 8.4 °C 1018.9 hPa NE 9.7 km/h 16.1 km/h 62% 0.0 mm FEW
17:30 15.6 °C 8.3 °C 1018.9 hPa NE 11.3 km/h 14.5 km/h 62% 0.0 mm FEW
17:35 15.5 °C 8.5 °C 1018.9 hPa NE 11.3 km/h 9.7 km/h 63% 0.0 mm FEW
17:40 15.4 °C 8.4 °C 1018.9 hPa East 6.9 km/h 13.0 km/h 63% 0.0 mm FEW
17:45 15.3 °C 8.5 °C 1018.9 hPa NE 6.9 km/h 9.3 km/h 64% 0.0 mm FEW
17:50 15.2 °C 8.4 °C 1018.9 hPa NE 4.8 km/h 8.0 km/h 64% 0.0 mm FEW
17:55 15.1 °C 8.3 °C 1018.9 hPa NE 5.8 km/h 7.4 km/h 64% 0.0 mm FEW
18:00 15.0 °C 8.4 °C 1018.9 hPa NE 4.8 km/h 8.0 km/h 65% 0.0 mm FEW
18:05 14.9 °C 8.3 °C 1019.0 hPa ENE 4.8 km/h 9.7 km/h 65% 0.0 mm FEW
18:10 14.8 °C 8.3 °C 1019.0 hPa East 3.2 km/h 8.0 km/h 65% 0.0 mm FEW
18:15 14.7 °C 8.4 °C 1019.0 hPa East 4.7 km/h 7.4 km/h 66% 0.0 mm FEW
18:20 14.5 °C 8.2 °C 1019.0 hPa East 3.2 km/h 5.8 km/h 66% 0.0 mm FEW
18:25 14.4 °C 8.1 °C 1019.0 hPa East 3.2 km/h 6.4 km/h 66% 0.0 mm FEW
18:30 14.3 °C 8.3 °C 1019.0 hPa East 3.2 km/h 8.0 km/h 67% 0.0 mm FEW
18:35 14.3 °C 8.3 °C 1019.1 hPa East 3.2 km/h 9.7 km/h 67% 0.0 mm FEW
18:40 14.2 °C 8.6 °C 1019.1 hPa East 4.8 km/h 9.7 km/h 69% 0.0 mm FEW
18:45 14.1 °C 8.7 °C 1019.1 hPa East 5.0 km/h 7.4 km/h 70% 0.0 mm FEW
18:50 13.9 °C 8.7 °C 1019.2 hPa East 4.8 km/h 8.0 km/h 71% 0.0 mm FEW
18:55 13.8 °C 8.6 °C 1019.2 hPa East 4.8 km/h 8.0 km/h 71% 0.0 mm FEW
19:00 13.7 °C 8.7 °C 1019.2 hPa East 3.2 km/h 8.0 km/h 72% 0.0 mm FEW
19:05 13.5 °C 8.8 °C 1019.4 hPa East 3.9 km/h 5.8 km/h 73% 0.0 mm FEW
19:10 13.4 °C 8.8 °C 1019.4 hPa East 4.8 km/h 11.3 km/h 74% 0.0 mm FEW
19:15 13.3 °C 8.9 °C 1019.4 hPa East 4.8 km/h 9.7 km/h 75% 0.0 mm FEW
19:20 13.2 °C 9.1 °C 1019.5 hPa ENE 5.8 km/h 3.7 km/h 76% 0.0 mm FEW
19:25 13.1 °C 9.2 °C 1019.5 hPa East 5.8 km/h 7.4 km/h 77% 0.0 mm FEW
19:30 13.0 °C 9.1 °C 1019.5 hPa ENE 4.7 km/h 7.4 km/h 77% 0.0 mm FEW
19:35 12.9 °C 8.9 °C 1019.5 hPa ENE 3.2 km/h 8.0 km/h 77% 0.0 mm FEW
19:39 12.8 °C 8.9 °C 1019.5 hPa ENE 3.9 km/h 3.7 km/h 77% 0.0 mm FEW
19:45 12.7 °C 8.8 °C 1019.5 hPa NE 3.9 km/h 7.4 km/h 77% 0.0 mm FEW
19:50 12.5 °C 8.6 °C 1019.6 hPa NE 3.2 km/h 8.0 km/h 77% 0.0 mm CLR
19:55 12.3 °C 8.6 °C 1019.6 hPa NE 3.2 km/h 5.6 km/h 78% 0.0 mm CLR
20:00 12.2 °C 8.5 °C 1019.6 hPa NE 3.2 km/h 6.4 km/h 78% 0.0 mm CLR
20:05 12.0 °C 8.4 °C 1019.7 hPa NNE 3.9 km/h 7.4 km/h 79% 0.0 mm CLR
20:09 11.9 °C 8.6 °C 1019.7 hPa NNE 4.7 km/h 5.8 km/h 80% 0.0 mm CLR
20:15 11.8 °C 8.7 °C 1019.7 hPa NE 4.7 km/h 7.4 km/h 81% 0.0 mm CLR
20:20 11.7 °C 8.6 °C 1019.8 hPa NE 3.9 km/h 5.8 km/h 81% 0.0 mm CLR
20:25 11.6 °C 8.6 °C 1019.8 hPa NE 3.9 km/h 7.4 km/h 82% 0.0 mm CLR
20:30 11.5 °C 8.7 °C 1019.8 hPa NNE 3.2 km/h 9.7 km/h 83% 0.0 mm CLR
20:35 11.4 °C 8.6 °C 1019.9 hPa NNE 4.7 km/h 9.3 km/h 83% 0.0 mm CLR
20:40 11.3 °C 8.5 °C 1019.9 hPa NNE 4.8 km/h 9.7 km/h 83% 0.0 mm CLR
20:45 11.2 °C 8.6 °C 1019.9 hPa NNE 4.8 km/h 8.0 km/h 84% 0.0 mm CLR
20:50 11.1 °C 8.5 °C 1019.9 hPa NNE 4.7 km/h 7.4 km/h 84% 0.0 mm FEW
20:55 10.9 °C 8.3 °C 1019.9 hPa North 4.7 km/h 7.4 km/h 84% 0.0 mm FEW
21:00 10.8 °C 8.4 °C 1019.9 hPa North 3.2 km/h 8.0 km/h 85% 0.0 mm FEW
21:05 10.7 °C 8.3 °C 1020.0 hPa North 3.2 km/h 3.2 km/h 85% 0.0 mm FEW
21:10 10.6 °C 8.2 °C 1020.0 hPa North 1.6 km/h 3.2 km/h 85% 0.0 mm FEW
21:15 10.6 °C 8.3 °C 1020.0 hPa North 1.6 km/h 3.2 km/h 86% 0.0 mm FEW
21:20 10.5 °C 8.3 °C 1019.9 hPa Calm     86% 0.0 mm SCT
21:25 10.4 °C 8.4 °C 1019.9 hPa Calm     87% 0.0 mm SCT
21:30 10.4 °C 8.5 °C 1019.9 hPa Calm     88% 0.0 mm SCT
21:35 10.5 °C 8.6 °C 1020.0 hPa Calm     88% 0.0 mm SCT
21:40 10.6 °C 8.7 °C 1020.0 hPa Calm     88% 0.0 mm SCT
21:45 10.6 °C 8.7 °C 1020.0 hPa Calm   5.6 km/h 88% 0.0 mm SCT
21:50 10.6 °C 8.7 °C 1020.1 hPa NE 3.2 km/h 6.4 km/h 88% 0.0 mm BKN
21:55 10.4 °C 8.4 °C 1020.1 hPa ENE 3.2 km/h 8.0 km/h 87% 0.0 mm BKN
22:00 10.4 °C 8.5 °C 1020.1 hPa East 3.2 km/h 1.6 km/h 88% 0.0 mm BKN
22:05 10.4 °C 8.5 °C 1020.2 hPa East 3.2 km/h   88% 0.0 mm BKN
22:10 10.3 °C 8.4 °C 1020.2 hPa Calm     88% 0.0 mm BKN
22:15 10.3 °C 8.4 °C 1020.2 hPa Calm   4.8 km/h 88% 0.0 mm BKN
22:20 10.2 °C 8.3 °C 1020.1 hPa East 1.6 km/h 4.8 km/h 88% 0.0 mm BKN
22:25 10.2 °C 8.3 °C 1020.1 hPa East 2.3 km/h 3.7 km/h 88% 0.0 mm BKN
22:30 10.2 °C 8.3 °C 1020.1 hPa Calm   5.6 km/h 88% 0.0 mm BKN
22:35 10.1 °C 8.1 °C 1020.2 hPa Calm   8.0 km/h 87% 0.0 mm BKN
22:40 10.0 °C 7.9 °C 1020.2 hPa South 3.9 km/h 4.7 km/h 87% 0.0 mm BKN
22:45 9.9 °C 7.8 °C 1020.2 hPa South 3.2 km/h 8.0 km/h 87% 0.0 mm BKN
22:50 9.9 °C 7.8 °C 1020.3 hPa South 3.9 km/h 7.4 km/h 87% 0.0 mm FEW
22:55 9.9 °C 7.8 °C 1020.3 hPa South 3.9 km/h 7.4 km/h 87% 0.0 mm FEW
23:00 9.9 °C 8.0 °C 1020.3 hPa South 3.2 km/h 8.0 km/h 88% 0.0 mm FEW
23:05 9.9 °C 8.0 °C 1020.2 hPa SSW 4.7 km/h 7.4 km/h 88% 0.0 mm FEW
23:09 10.0 °C 7.9 °C 1020.2 hPa SSW 5.0 km/h 7.4 km/h 87% 0.0 mm FEW
23:15 9.9 °C 7.8 °C 1020.2 hPa SW 5.0 km/h 5.6 km/h 87% 0.0 mm FEW
23:20 9.9 °C 7.8 °C 1020.2 hPa SW 4.7 km/h 9.3 km/h 87% 0.0 mm CLR
23:25 9.9 °C 7.7 °C 1020.2 hPa SW 3.2 km/h 9.7 km/h 86% 0.0 mm CLR
23:30 9.8 °C 7.6 °C 1020.2 hPa SSW 5.8 km/h 7.4 km/h 86% 0.0 mm CLR
23:35 9.8 °C 7.6 °C 1020.2 hPa SSW 4.8 km/h 8.0 km/h 86% 0.0 mm CLR
23:40 9.7 °C 7.4 °C 1020.2 hPa SSW 4.8 km/h 8.0 km/h 86% 0.0 mm CLR
23:45 9.7 °C 7.4 °C 1020.2 hPa SSW 5.0 km/h 7.4 km/h 86% 0.0 mm CLR
23:50 9.6 °C 7.4 °C 1020.1 hPa SSW 5.8 km/h 7.4 km/h 86% 0.0 mm CLR
23:55 9.5 °C 7.3 °C 1020.1 hPa SSW 4.8 km/h 8.0 km/h 86% 0.0 mm CLR
Murcia-Puente Tocinos, España
Compliments of Weather Underground - 2.75 mb

La estación de MeteoMurcia.com, publica sus datos en los siguientes proyectos:

Weather Underground PWS IMURCIAP2 Meteoclimatic www.awekas.at

W3Counter
Web Analytics